CheckWX is a tool to help pilots better visualize weather data.  It is not intended as a substitute for an official pre-flight weather briefing.

14:48:37 UTC

ZWSH TAF
Kashgar Airport
Kashgar, China
TAF ZWSH 230904Z 2312/2412 15004MPS 3100 DU FEW040 TX17/2409Z TN05/2400Z BECMG 2315/2316 32004MPS

Mar-23@
12:00 UTC

Mar-23 @ 12:00 UTC

Mar-23@
15:00 UTC

Mar-23 @ 15:00 UTC

TAF ZWSH 230904Z 2312/2412 15004MPS 3100 DU FEW040 TX17/2409Z TN05/2400Z
Wind
  • 150° at 8 KTS
Conditions
Dust
Cloud Levels
  • Few at 4,000' AGL

Mar-23@
15:00 UTC

Mar-23 @ 15:00 UTC

Mar-24@
12:00 UTC

Mar-24 @ 12:00 UTC

BECMG 2315/2316 32004MPS

Becoming

Becoming Conditions expected by Sat, Mar 23, 2019 @ 16:00 UTC

Wind
  • 320° at 8 KTS
Conditions
Dust
Cloud Levels
  • Few at 4,000' AGL